Time,TemperatureF,DewpointF,PressureIn,WindDirection,WindDirectionDegrees,WindSpeedMPH,WindSpeedGustMPH,Humidity,HourlyPrecipIn,Conditions,Clouds,dailyrainin,SoftwareType,DateUTC
2013-07-28 00:02:00,68.0,57.0,29.91,North,356,0.0,3.0,68,0.00,,,0.00,,2013-07-28 05:02:00,
2013-07-28 00:12:00,68.0,57.0,29.91,NE,45,0.0,6.0,68,0.00,,,0.00,,2013-07-28 05:12:00,
2013-07-28 00:22:00,67.0,56.0,29.91,NE,37,0.0,3.0,68,0.00,,,0.00,,2013-07-28 05:22:00,
2013-07-28 00:32:00,67.0,56.0,29.91,NNE,19,0.0,6.0,67,0.00,,,0.00,,2013-07-28 05:32:00,
2013-07-28 00:43:00,67.0,55.0,29.91,NE,37,1.0,10.0,66,0.00,,,0.00,,2013-07-28 05:43:00,
2013-07-28 00:52:00,66.0,55.0,29.91,NE,38,0.0,6.0,67,0.00,,,0.00,,2013-07-28 05:52:00,
2013-07-28 01:02:00,66.0,55.0,29.92,NE,40,0.0,3.0,68,0.00,,,0.00,,2013-07-28 06:02:00,
2013-07-28 01:12:00,66.0,56.0,29.92,NE,52,0.0,6.0,69,0.00,,,0.00,,2013-07-28 06:12:00,
2013-07-28 01:22:00,65.0,54.0,29.92,NE,54,1.0,6.0,68,0.00,,,0.00,,2013-07-28 06:22:00,
2013-07-28 01:32:00,65.0,54.0,29.92,NE,49,1.0,6.0,67,0.00,,,0.00,,2013-07-28 06:32:00,
2013-07-28 01:43:00,65.0,54.0,29.92,NE,52,0.0,6.0,68,0.00,,,0.00,,2013-07-28 06:43:00,
2013-07-28 01:52:00,64.0,54.0,29.92,NE,51,0.0,2.0,69,0.00,,,0.00,,2013-07-28 06:52:00,
2013-07-28 02:02:00,64.0,54.0,29.92,NNE,28,0.0,3.0,69,0.00,,,0.00,,2013-07-28 07:02:00,
2013-07-28 02:12:00,64.0,54.0,29.92,NE,50,0.0,6.0,69,0.00,,,0.00,,2013-07-28 07:12:00,
2013-07-28 02:22:00,64.0,53.0,29.92,NE,53,0.0,6.0,68,0.00,,,0.00,,2013-07-28 07:22:00,
2013-07-28 02:32:00,63.0,52.0,29.92,ENE,57,0.0,3.0,68,0.00,,,0.00,,2013-07-28 07:32:00,
2013-07-28 02:43:00,63.0,52.0,29.92,NE,40,0.0,2.0,68,0.00,,,0.00,,2013-07-28 07:43:00,
2013-07-28 02:53:00,63.0,52.0,29.92,NE,42,0.0,6.0,68,0.00,,,0.00,,2013-07-28 07:53:00,
2013-07-28 03:02:00,63.0,52.0,29.92,NE,44,0.0,6.0,67,0.00,,,0.00,,2013-07-28 08:02:00,
2013-07-28 03:12:00,63.0,52.0,29.92,NE,54,0.0,3.0,68,0.00,,,0.00,,2013-07-28 08:12:00,
2013-07-28 03:22:00,62.0,52.0,29.92,North,0,0.0,0.0,69,0.00,,,0.00,,2013-07-28 08:22:00,
2013-07-28 03:33:00,62.0,53.0,29.93,North,0,0.0,0.0,73,0.00,,,0.00,,2013-07-28 08:33:00,
2013-07-28 03:42:00,61.0,52.0,29.93,NE,51,0.0,1.0,72,0.00,,,0.00,,2013-07-28 08:42:00,
2013-07-28 03:53:00,61.0,52.0,29.93,NE,54,0.0,3.0,72,0.00,,,0.00,,2013-07-28 08:53:00,
2013-07-28 04:02:00,61.0,52.0,29.93,NE,54,0.0,3.0,72,0.00,,,0.00,,2013-07-28 09:02:00,
2013-07-28 04:12:00,61.0,53.0,29.93,North,0,0.0,0.0,74,0.00,,,0.00,,2013-07-28 09:12:00,
2013-07-28 04:22:00,60.0,52.0,29.93,North,0,0.0,0.0,76,0.00,,,0.00,,2013-07-28 09:22:00,
2013-07-28 04:32:00,60.0,53.0,29.94,North,0,0.0,0.0,78,0.00,,,0.00,,2013-07-28 09:32:00,
2013-07-28 04:43:00,59.0,52.0,29.94,North,0,0.0,0.0,78,0.00,,,0.00,,2013-07-28 09:43:00,
2013-07-28 04:53:00,59.0,52.0,29.93,North,0,0.0,0.0,79,0.00,,,0.00,,2013-07-28 09:53:00,
2013-07-28 05:02:00,59.0,54.0,29.94,North,0,0.0,0.0,82,0.00,,,0.00,,2013-07-28 10:02:00,
2013-07-28 05:12:00,58.0,53.0,29.94,North,0,0.0,0.0,84,0.00,,,0.00,,2013-07-28 10:12:00,
2013-07-28 05:22:00,57.0,53.0,29.94,North,0,0.0,0.0,85,0.00,,,0.00,,2013-07-28 10:22:00,
2013-07-28 05:33:00,57.0,53.0,29.94,NE,55,0.0,1.0,86,0.00,,,0.00,,2013-07-28 10:33:00,
2013-07-28 05:42:00,57.0,53.0,29.94,North,0,0.0,0.0,86,0.00,,,0.00,,2013-07-28 10:42:00,
2013-07-28 05:52:00,57.0,53.0,29.94,North,0,0.0,0.0,86,0.00,,,0.00,,2013-07-28 10:52:00,
2013-07-28 06:12:00,56.0,52.0,29.95,North,0,0.0,0.0,88,0.00,,,0.00,,2013-07-28 11:12:00,
2013-07-28 06:22:00,56.0,53.0,29.95,North,0,0.0,0.0,89,0.00,,,0.00,,2013-07-28 11:22:00,
2013-07-28 06:33:00,56.0,53.0,29.96,North,0,0.0,0.0,89,0.00,,,0.00,,2013-07-28 11:33:00,
2013-07-28 06:43:00,56.0,53.0,29.96,North,0,0.0,0.0,89,0.00,,,0.00,,2013-07-28 11:43:00,
2013-07-28 06:53:00,56.0,53.0,29.96,North,0,0.0,0.0,89,0.00,,,0.00,,2013-07-28 11:53:00,
2013-07-28 07:02:00,56.0,53.0,29.96,North,0,0.0,0.0,90,0.00,,,0.00,,2013-07-28 12:02:00,
2013-07-28 07:12:00,57.0,55.0,29.96,North,0,0.0,0.0,92,0.00,,,0.00,,2013-07-28 12:12:00,
2013-07-28 07:22:00,58.0,56.0,29.97,North,0,0.0,0.0,92,0.00,,,0.00,,2013-07-28 12:22:00,
2013-07-28 07:33:00,61.0,58.0,29.97,North,0,0.0,0.0,91,0.00,,,0.00,,2013-07-28 12:33:00,
2013-07-28 08:52:00,69.0,54.0,29.98,ENE,62,1.0,5.0,58,0.00,,,0.00,,2013-07-28 13:52:00,
2013-07-28 09:02:00,70.0,54.0,29.98,ENE,73,1.0,5.0,56,0.00,,,0.00,,2013-07-28 14:02:00,
2013-07-28 09:12:00,71.0,55.0,29.98,ENE,73,0.0,3.0,58,0.00,,,0.00,,2013-07-28 14:12:00,
2013-07-28 09:23:00,71.0,55.0,29.99,ENE,76,0.0,2.0,58,0.00,,,0.00,,2013-07-28 14:23:00,
2013-07-28 09:33:00,71.0,52.0,29.99,ENE,75,0.0,5.0,52,0.00,,,0.00,,2013-07-28 14:33:00,
2013-07-28 09:43:00,72.0,54.0,29.99,ENE,75,0.0,5.0,54,0.00,,,0.00,,2013-07-28 14:43:00,
2013-07-28 09:53:00,72.0,53.0,29.98,ENE,76,0.0,3.0,51,0.00,,,0.00,,2013-07-28 14:53:00,
2013-07-28 10:03:00,73.0,53.0,29.98,ESE,120,0.0,5.0,50,0.00,,,0.00,,2013-07-28 15:03:00,
2013-07-28 10:13:00,72.0,52.0,29.98,East,100,0.0,5.0,50,0.00,,,0.00,,2013-07-28 15:13:00,
2013-07-28 10:22:00,72.0,51.0,29.98,East,98,0.0,2.0,47,0.00,,,0.00,,2013-07-28 15:22:00,
2013-07-28 10:32:00,72.0,51.0,29.99,East,98,0.0,2.0,48,0.00,,,0.00,,2013-07-28 15:32:00,
2013-07-28 10:43:00,73.0,53.0,29.99,East,96,0.0,2.0,50,0.00,,,0.00,,2013-07-28 15:43:00,
2013-07-28 10:53:00,74.0,53.0,29.98,East,90,0.0,2.0,48,0.00,,,0.00,,2013-07-28 15:53:00,
2013-07-28 11:02:00,74.0,51.0,29.99,North,1,0.0,5.0,45,0.00,,,0.00,,2013-07-28 16:02:00,
2013-07-28 11:12:00,74.0,52.0,29.99,ENE,66,0.0,5.0,46,0.00,,,0.00,,2013-07-28 16:12:00,
2013-07-28 11:22:00,74.0,49.0,29.99,ENE,72,0.0,5.0,42,0.00,,,0.00,,2013-07-28 16:22:00,
2013-07-28 11:33:00,74.0,51.0,29.99,East,80,1.0,6.0,45,0.00,,,0.00,,2013-07-28 16:33:00,
2013-07-28 11:43:00,74.0,51.0,29.99,ENE,74,0.0,4.0,44,0.00,,,0.00,,2013-07-28 16:43:00,
2013-07-28 12:02:00,74.0,52.0,29.99,North,0,0.0,0.0,46,0.00,,,0.00,,2013-07-28 17:02:00,
2013-07-28 12:12:00,74.0,51.0,29.99,NE,49,0.0,2.0,45,0.00,,,0.00,,2013-07-28 17:12:00,
2013-07-28 12:22:00,74.0,51.0,29.99,North,356,0.0,5.0,44,0.00,,,0.00,,2013-07-28 17:22:00,
2013-07-28 12:32:00,74.0,52.0,29.99,NNW,333,0.0,5.0,46,0.00,,,0.00,,2013-07-28 17:32:00,
2013-07-28 12:53:00,75.0,52.0,29.99,North,5,0.0,3.0,45,0.00,,,0.00,,2013-07-28 17:53:00,
2013-07-28 13:03:00,74.0,52.0,29.99,NNW,333,0.0,5.0,46,0.00,,,0.00,,2013-07-28 18:03:00,
2013-07-28 13:12:00,75.0,53.0,29.99,ENE,57,0.0,5.0,46,0.00,,,0.00,,2013-07-28 18:12:00,
2013-07-28 13:22:00,75.0,54.0,29.99,ENE,59,0.0,2.0,48,0.00,,,0.00,,2013-07-28 18:22:00,
2013-07-28 13:33:00,76.0,53.0,29.98,ENE,58,0.0,1.0,45,0.00,,,0.00,,2013-07-28 18:33:00,
2013-07-28 13:43:00,76.0,55.0,29.98,SW,232,0.0,6.0,49,0.00,,,0.00,,2013-07-28 18:43:00,
2013-07-28 13:52:00,75.0,53.0,29.97,WNW,293,0.0,5.0,46,0.00,,,0.00,,2013-07-28 18:52:00,
2013-07-28 14:02:00,75.0,52.0,29.96,East,88,0.0,7.0,45,0.00,,,0.00,,2013-07-28 19:02:00,
2013-07-28 14:12:00,75.0,53.0,29.96,SE,139,0.0,3.0,46,0.00,,,0.00,,2013-07-28 19:12:00,
2013-07-28 14:22:00,75.0,56.0,29.96,SE,140,0.0,2.0,51,0.00,,,0.00,,2013-07-28 19:22:00,
2013-07-28 14:33:00,75.0,55.0,29.96,SE,140,0.0,3.0,50,0.00,,,0.00,,2013-07-28 19:33:00,
2013-07-28 14:52:00,75.0,53.0,29.96,East,95,0.0,1.0,47,0.00,,,0.00,,2013-07-28 19:52:00,
2013-07-28 15:02:00,76.0,54.0,29.96,East,95,0.0,2.0,46,0.00,,,0.00,,2013-07-28 20:02:00,
2013-07-28 15:12:00,76.0,53.0,29.96,East,95,0.0,1.0,45,0.00,,,0.00,,2013-07-28 20:12:00,
2013-07-28 15:23:00,77.0,53.0,29.96,East,92,0.0,2.0,43,0.00,,,0.00,,2013-07-28 20:23:00,
2013-07-28 15:33:00,77.0,53.0,29.96,NE,47,0.0,4.0,44,0.00,,,0.00,,2013-07-28 20:33:00,
2013-07-28 15:43:00,76.0,53.0,29.96,NNW,348,0.0,2.0,45,0.00,,,0.00,,2013-07-28 20:43:00,
2013-07-28 15:52:00,77.0,55.0,29.96,North,0,0.0,0.0,46,0.00,,,0.00,,2013-07-28 20:52:00,
2013-07-28 16:03:00,76.0,53.0,29.96,NNW,339,0.0,3.0,45,0.00,,,0.00,,2013-07-28 21:03:00,
2013-07-28 16:13:00,76.0,54.0,29.96,NW,321,0.0,2.0,46,0.00,,,0.00,,2013-07-28 21:13:00,
2013-07-28 16:22:00,77.0,53.0,29.96,West,270,0.0,2.0,44,0.00,,,0.00,,2013-07-28 21:22:00,
2013-07-28 16:33:00,77.0,56.0,29.96,SW,224,0.0,1.0,48,0.00,,,0.00,,2013-07-28 21:33:00,
2013-07-28 16:44:00,77.0,57.0,29.96,SE,132,0.0,2.0,50,0.00,,,0.00,,2013-07-28 21:44:00,
2013-07-28 16:52:00,77.0,55.0,29.96,NW,321,0.0,3.0,46,0.00,,,0.00,,2013-07-28 21:52:00,
2013-07-28 17:02:00,76.0,52.0,29.96,WNW,288,0.0,5.0,43,0.00,,,0.00,,2013-07-28 22:02:00,
2013-07-28 17:12:00,76.0,55.0,29.96,North,0,0.0,0.0,48,0.00,,,0.00,,2013-07-28 22:12:00,
2013-07-28 17:22:00,75.0,53.0,29.96,West,274,0.0,2.0,47,0.00,,,0.00,,2013-07-28 22:22:00,
2013-07-28 17:32:00,75.0,56.0,29.97,North,0,0.0,0.0,52,0.00,,,0.00,,2013-07-28 22:32:00,
2013-07-28 17:43:00,76.0,52.0,29.97,West,272,0.0,1.0,44,0.00,,,0.00,,2013-07-28 22:43:00,
2013-07-28 17:52:00,77.0,54.0,29.97,West,267,0.0,2.0,45,0.00,,,0.00,,2013-07-28 22:52:00,
2013-07-28 18:03:00,77.0,56.0,29.97,West,267,0.0,2.0,48,0.00,,,0.00,,2013-07-28 23:03:00,
2013-07-28 18:12:00,77.0,56.0,29.97,West,267,0.0,3.0,48,0.00,,,0.00,,2013-07-28 23:12:00,
2013-07-28 18:22:00,77.0,56.0,29.97,West,267,0.0,2.0,48,0.00,,,0.00,,2013-07-28 23:22:00,
2013-07-28 18:32:00,76.0,58.0,29.97,North,0,0.0,0.0,53,0.00,,,0.00,,2013-07-28 23:32:00,
2013-07-28 18:43:00,74.0,60.0,29.97,North,0,0.0,0.0,62,0.00,,,0.00,,2013-07-28 23:43:00,
2013-07-28 18:53:00,73.0,61.0,29.97,West,267,0.0,1.0,65,0.00,,,0.00,,2013-07-28 23:53:00,
2013-07-28 19:03:00,72.0,60.0,29.98,North,0,0.0,0.0,67,0.00,,,0.00,,2013-07-29 00:03:00,
2013-07-28 19:22:00,71.0,61.0,29.98,West,267,0.0,1.0,70,0.00,,,0.00,,2013-07-29 00:22:00,
2013-07-28 19:32:00,71.0,61.0,29.98,North,0,0.0,0.0,71,0.00,,,0.00,,2013-07-29 00:32:00,
2013-07-28 19:52:00,70.0,61.0,29.98,North,0,0.0,0.0,72,0.00,,,0.00,,2013-07-29 00:52:00,
2013-07-28 20:02:00,69.0,60.0,29.99,North,0,0.0,0.0,74,0.00,,,0.00,,2013-07-29 01:02:00,
2013-07-28 20:13:00,69.0,61.0,29.99,North,0,0.0,0.0,75,0.00,,,0.00,,2013-07-29 01:13:00,
2013-07-28 20:27:00,69.0,61.0,29.99,North,0,0.0,0.0,75,0.00,,,0.00,,2013-07-29 01:27:00,
2013-07-28 20:35:00,68.0,61.0,29.99,North,0,0.0,0.0,78,0.00,,,0.00,,2013-07-29 01:35:00,
2013-07-28 20:57:00,67.0,61.0,29.99,North,0,0.0,0.0,81,0.00,,,0.00,,2013-07-29 01:57:00,
2013-07-28 21:05:00,66.0,61.0,29.99,North,0,0.0,0.0,83,0.00,,,0.00,,2013-07-29 02:05:00,
2013-07-28 21:14:00,66.0,61.0,30.00,North,0,0.0,0.0,84,0.00,,,0.00,,2013-07-29 02:14:00,
2013-07-28 21:25:00,66.0,61.0,30.00,North,0,0.0,0.0,85,0.00,,,0.00,,2013-07-29 02:25:00,
2013-07-28 21:36:00,65.0,61.0,30.00,North,0,0.0,0.0,86,0.00,,,0.00,,2013-07-29 02:36:00,
2013-07-28 21:56:00,65.0,61.0,30.01,North,0,0.0,0.0,87,0.00,,,0.00,,2013-07-29 02:56:00,
2013-07-28 22:03:00,64.0,60.0,30.01,North,0,0.0,0.0,88,0.00,,,0.00,,2013-07-29 03:03:00,
2013-07-28 22:16:00,64.0,60.0,30.01,North,0,0.0,0.0,88,0.00,,,0.00,,2013-07-29 03:16:00,
2013-07-28 22:24:00,64.0,60.0,30.01,North,0,0.0,0.0,88,0.00,,,0.00,,2013-07-29 03:24:00,
2013-07-28 22:36:00,64.0,61.0,30.01,North,0,0.0,0.0,89,0.00,,,0.00,,2013-07-29 03:36:00,
2013-07-28 22:48:00,64.0,61.0,30.01,North,0,0.0,0.0,89,0.00,,,0.00,,2013-07-29 03:48:00,
2013-07-28 22:55:00,63.0,60.0,30.01,North,0,0.0,0.0,89,0.00,,,0.00,,2013-07-29 03:55:00,
2013-07-28 23:02:00,63.0,60.0,30.01,North,0,0.0,0.0,89,0.00,,,0.00,,2013-07-29 04:02:00,
2013-07-28 23:12:00,63.0,60.0,30.01,North,0,0.0,0.0,90,0.00,,,0.00,,2013-07-29 04:12:00,
2013-07-28 23:22:00,63.0,60.0,30.01,North,0,0.0,0.0,90,0.00,,,0.00,,2013-07-29 04:22:00,
2013-07-28 23:32:00,62.0,59.0,30.01,North,0,0.0,0.0,91,0.00,,,0.00,,2013-07-29 04:32:00,
2013-07-28 23:43:00,62.0,59.0,30.01,North,0,0.0,0.0,91,0.00,,,0.00,,2013-07-29 04:43:00,
2013-07-28 23:53:00,62.0,60.0,30.01,North,0,0.0,0.0,92,0.00,,,0.00,,2013-07-29 04:53:00,